Tiempo atmosférico en la estación meteorológica de Aller, Asturias (750 m.)

Fecha
DESCASC
Temp. máxima en grados centígrados (hora)
DESCASC
Temp. mínima en grados centígrados (hora)
DESCASC
Temp. media en grados centígrados
DESCASC
Racha de viento máxima en m/sg (hora)
DESCASC
Velocidad máxima media en intervalos de 10 minutos(hora)
DESCASC
Precipitaciones diarias en mm
DESCASC
Precipitaciones de 00:00 a 06:00 en mm
DESCASC
Precipitaciones de 06:00 a 12:00 en mm
DESCASC
Precipitaciones de 12:00 a 18:00 en mm
DESCASC
Precipitaciones de 18:00 a 24:00 en mm
DESCASC
21-08-2017 35.7 (15:30) 12.8 (04:40) 24.3 6.67 (11:50) 2.5 (05:00) 0 0 0 0 0
20-08-2017 28.7 (16:30) 8.3 (08:00) 18.5 6.11 (16:50) 2.78 (15:40) 0 0 0 0 0
19-08-2017 23.1 (16:30) 15 (07:40) 19.1 6.11 (17:10) 3.06 (17:10) 0.2 0 0.2 0 0
18-08-2017 23.4 (16:50) 15.8 (23:50) 19.6 16.94 (00:40) 3.06 (18:30) 0.6 0.6 0 0 0
17-08-2017 27.9 (18:00) 12.2 (00:00) 20 6.39 (12:00) 2.78 (13:20) 0 0 0 0 0
16-08-2017 26 (16:30) 10.1 (00:00) 18.1 6.67 (17:30) 3.06 (17:30) 0.2 0.2 0 0 0
15-08-2017 19.6 (17:30) 15.6 (00:00) 17.6 4.17 (17:40) 2.5 (17:40) 0.8 0.6 0.2 0 0
14-08-2017 28.5 (14:20) 12.3 (03:00) 20.4 7.22 (07:50) 2.78 (07:30) 0.8 0 0 0.8 0
13-08-2017 25.6 (17:00) 9.5 (00:00) 17.6 6.67 (15:40) 3.06 (15:10) 0 0 0 0 0
12-08-2017 25.1 (16:40) 7.1 (00:00) 16.1 6.39 (15:30) 3.33 (15:50) 0 0 0 0 0
11-08-2017 22.4 (17:30) 4.8 (00:00) 13.6 6.11 (16:40) 3.33 (16:30) 0 0 0 0 0
10-08-2017 18.4 (16:10) 6.9 (00:00) 12.6 5.83 (16:10) 2.78 (16:20) 0 0 0 0 0
09-08-2017 12.6 (19:20) 8.4 (00:00) 10.5 6.11 (13:20) 2.5 (12:40) 3.2 0 1.8 1.4 0
08-08-2017 18.3 (17:30) 9.1 (00:00) 13.7 6.94 (14:40) 3.61 (15:40) 0.2 0.2 0 0 0
07-08-2017 16.4 (16:30) 11.8 (00:00) 14.1 5.28 (20:20) 2.22 (20:00) 2.4 0 0 0 2.4
06-08-2017 17 (16:00) 12.6 (00:00) 14.8 4.17 (12:50) 2.22 (13:30) 2.8 1.8 1 0 0
05-08-2017 19.7 (00:00) 13 (00:00) 16.4 4.72 (11:30) 2.22 (05:20) 4.8 2 2 0.6 0.2
04-08-2017 29.2 (16:10) 14 (00:00) 21.6 9.72 (15:30) 3.33 (15:00) 0 0 0 0 0
03-08-2017 26.1 (15:20) 12.9 (00:00) 19.5 6.39 (15:00) 3.06 (14:20) 0 0 0 0 0
02-08-2017 26 (16:20) 9.3 (00:00) 17.7 8.33 (15:20) 3.33 (15:10) 0 0 0 0 0
01-08-2017 18.7 (14:40) 12.9 (00:00) 15.8 5 (16:10) 2.5 (13:20) 0.6 0.2 0.2 0 0.2
31-07-2017 16.8 (14:40) 12.2 (00:00) 14.5 5 (14:30) 1.94 (14:30) 0.6 0.2 0 0 0.4
30-07-2017 22.9 (14:40) 13.8 (00:00) 18.3 8.33 (16:50) 3.33 (16:40) 0.6 0 0 0 0.6
29-07-2017 28.6 (16:00) 14.9 (00:00) 21.8 6.39 (16:10) 3.33 (16:30) 0 0 0 0 0
28-07-2017 27.2 (16:50) 10 (00:00) 18.6 7.5 (16:50) 3.33 (17:30) 0.4 0.4 0 0 0
27-07-2017 27.5 (16:40) 12 (00:00) 19.8 6.94 (17:10) 3.33 (17:20) 0.2 0 0 0 0.2
26-07-2017 27.2 (16:20) 10.2 (00:00) 18.7 5.56 (15:00) 2.78 (14:50) 0 0 0 0 0
25-07-2017 22.5 (16:30) 11.7 (00:00) 17.1 6.94 (16:30) 3.61 (17:30) 0 0 0 0 0
24-07-2017 17.9 (14:10) 13.4 (00:00) 15.6 4.72 (09:40) 2.5 (09:50) -- -- 0.2 0 0.4
23-07-2017 24.6 (16:50) 7.5 (00:00) 16.1 7.5 (16:20) 3.33 (16:00) 0.6 0.2 0 0 0.4

Gráficas

Temp. máximas Temp. mínimas Temp. medias Precipitaciones Rachas de viento máximas Velocidades máximas media en intervalos de 10 minutos

Datos horarios

Fecha y hora oficial Temperatura (ºC) Velocidad del viento (km/h) Dirección del viento Racha (km/h) Dirección de racha Precipitación (mm) Presión (hPa) Tendencia (hPa) Humedad (%)
2017-08-21 23:00:00 19.6 8 Sudeste 11 Sudeste 0 -- -- 70
2017-08-21 22:00:00 20.8 7 Sudeste 12 Sudeste 0 -- -- 70
2017-08-21 21:00:00 22.9 6 Sudeste 11 Sur 0 -- -- 66
2017-08-21 20:00:00 25.7 6 Sudeste 12 Norte 0 -- -- 57
2017-08-21 19:00:00 31.9 5 Noroeste 19 Noroeste 0 -- -- 42
2017-08-21 18:00:00 33.1 8 Norte 22 Norte 0 -- -- 38
2017-08-21 17:00:00 34.4 7 Norte 19 Noroeste 0 -- -- 35
2017-08-21 16:00:00 34.8 9 Norte 18 Noroeste 0 -- -- 33
2017-08-21 15:00:00 35.1 5 Noroeste 10 Noroeste 0 -- -- 26
2017-08-21 14:00:00 33.9 5 Noroeste 12 Noroeste 0 -- -- 27
2017-08-21 13:00:00 33 4 Noroeste 15 Sudeste 0 -- -- 27
2017-08-21 12:00:00 30.5 5 Este 24 Sudeste 0 -- -- 30
2017-08-21 11:00:00 22.7 4 Norte 9 Norte 0 -- -- 65
2017-08-21 10:00:00 14.7 2 Este 8 Sudeste 0 -- -- 84
2017-08-21 09:00:00 13.4 2 Sudeste 10 Sudeste 0 -- -- 86
2017-08-21 08:00:00 13.3 4 Sudeste 11 Sudeste 0 -- -- 85
2017-08-21 07:00:00 13.8 5 Sudeste 14 Sudeste 0 -- -- 83
2017-08-21 06:00:00 13.3 5 Sudeste 13 Sudeste 0 -- -- 86
2017-08-21 05:00:00 13.6 9 Sudeste 14 Sudeste 0 -- -- 85
2017-08-21 04:00:00 13.4 4 Sudeste 13 Sudeste 0 -- -- 88
2017-08-21 03:00:00 13.9 5 Sudeste 13 Sudeste 0 -- -- 87
2017-08-21 02:00:00 14.8 3 Sudeste 12 Sudeste 0 -- -- 86
2017-08-21 01:00:00 15.1 4 Sudeste 11 Sudeste 0 -- -- 87
2017-08-21 00:00:00 15.9 6 Sudeste 10 Sudeste 0 -- -- 87
2017-08-20 23:00:00 16.8 5 Sudeste 10 Sudeste 0 -- -- 87
2017-08-20 22:00:00 18.2 6 Sudeste 9 Sudeste 0 -- -- 83
2017-08-20 21:00:00 20.2 5 Sudeste 9 Sudeste 0 -- -- 76
2017-08-20 20:00:00 23.8 3 Sur 13 Noroeste 0 -- -- 64
2017-08-20 19:00:00 27.6 5 Noroeste 18 Noroeste 0 -- -- 52
2017-08-20 18:00:00 28.3 7 Noroeste 21 Noroeste 0 -- -- 48
2017-08-20 17:00:00 28.6 9 Noroeste 22 Noroeste 0 -- -- 42
2017-08-20 16:00:00 28.1 10 Noroeste 21 Noroeste 0 -- -- 43
2017-08-20 15:00:00 27.8 9 Noroeste 19 Oeste 0 -- -- 39
2017-08-20 14:00:00 26.4 4 Noroeste 13 Noroeste 0 -- -- 35
2017-08-20 13:00:00 24.2 8 Noroeste 14 Noroeste 0 -- -- 34
2017-08-20 12:00:00 21.8 4 Noroeste 8 Noroeste 0 -- -- 39
2017-08-20 11:00:00 16.2 3 Nordeste 8 Nordeste 0 -- -- 67
2017-08-20 10:00:00 9.2 0 Calma 9 Sudeste 0 -- -- 92
2017-08-20 09:00:00 8.5 6 Sudeste 9 Sudeste 0 -- -- 89
2017-08-20 08:00:00 8.3 4 Sudeste 10 Sudeste 0 -- -- 88
2017-08-20 07:00:00 8.6 5 Sudeste 9 Sudeste 0 -- -- 87
2017-08-20 06:00:00 9 2 Sur 10 Sudeste 0 -- -- 87
2017-08-20 05:00:00 9.6 5 Sudeste 9 Sudeste 0 -- -- 87
2017-08-20 04:00:00 10.7 5 Sudeste 10 Sur 0 -- -- 85
2017-08-20 03:00:00 12.3 4 Sudeste 10 Sudeste 0 -- -- 85
2017-08-20 02:00:00 14.8 3 Sudeste 8 Sudeste 0 -- -- 89
2017-08-20 01:00:00 15.1 0 Calma 5 Nordeste 0 -- -- 94
2017-08-20 00:00:00 15.6 2 Noroeste 10 Norte 0 -- -- 92
2017-08-19 23:00:00 16 5 Norte 10 Norte 0 -- -- 92
2017-08-19 22:00:00 16.8 5 Norte 13 Norte 0 -- -- 87
2017-08-19 21:00:00 18 6 Norte 16 Norte 0 -- -- 83
2017-08-19 20:00:00 19.4 7 Norte 18 Noroeste 0 -- -- 76
2017-08-19 19:00:00 21.7 9 Noroeste 21 Noroeste 0 -- -- 69
2017-08-19 18:00:00 22.3 10 Noroeste 22 Noroeste 0 -- -- 65
2017-08-19 17:00:00 23.1 9 Noroeste 17 Noroeste 0 -- -- 63
2017-08-19 16:00:00 22.2 10 Noroeste 21 Noroeste 0 -- -- 63
2017-08-19 15:00:00 21.5 7 Noroeste 21 Noroeste 0 -- -- 67
2017-08-19 14:00:00 20 9 Noroeste 19 Noroeste 0 -- -- 71
2017-08-19 13:00:00 19.7 8 Noroeste 19 Noroeste 0 -- -- 75
2017-08-19 12:00:00 19 8 Noroeste 19 Noroeste 0 -- -- 78
2017-08-19 11:00:00 16.6 5 Noroeste 10 Noroeste 0 -- -- 89
2017-08-19 10:00:00 15.8 4 Norte 9 Norte 0 -- -- 94
2017-08-19 09:00:00 15.1 3 Norte 7 Norte 0.2 -- -- 98
2017-08-19 08:00:00 15 3 Norte 8 Nordeste 0 -- -- 98
2017-08-19 07:00:00 15.2 2 Norte 4 Norte 0 -- -- 97
2017-08-19 06:00:00 15.3 3 Noroeste 5 Noroeste 0 -- -- 97
2017-08-19 05:00:00 15.4 0 Calma 6 Norte 0 -- -- 97
2017-08-19 04:00:00 15.5 2 Norte 6 Noroeste 0 -- -- 97
2017-08-19 03:00:00 15.6 2 Norte 6 Norte 0 -- -- 96
2017-08-19 02:00:00 15.8 3 Norte 6 Norte 0 -- -- 94
2017-08-19 01:00:00 15.8 3 Norte 5 Norte 0 -- -- 94
2017-08-19 00:00:00 15.8 4 Norte 9 Noroeste 0 -- -- 94
2017-08-18 23:00:00 16 5 Norte 14 Noroeste 0 -- -- 93
2017-08-18 22:00:00 16.8 6 Norte 14 Norte 0 -- -- 89
2017-08-18 21:00:00 18 5 Norte 15 Noroeste 0 -- -- 85
2017-08-18 20:00:00 19.4 7 Norte 18 Noroeste 0 -- -- 79
2017-08-18 19:00:00 21.1 7 Norte 19 Noroeste 0 -- -- 74
2017-08-18 18:00:00 22.1 6 Noroeste 20 Noroeste 0 -- -- 67
2017-08-18 17:00:00 23.1 9 Noroeste 20 Noroeste 0 -- -- 65
2017-08-18 16:00:00 23.1 6 Noroeste 16 Noroeste 0 -- -- 62
2017-08-18 15:00:00 22.6 5 Noroeste 13 Noroeste 0 -- -- 65
2017-08-18 14:00:00 20 4 Noroeste 11 Noroeste 0 -- -- 77
2017-08-18 13:00:00 17.9 3 Noroeste 10 Norte 0 -- -- 85
2017-08-18 12:00:00 16.8 4 Norte 13 Norte 0 -- -- 93
2017-08-18 11:00:00 16.7 4 Norte 13 Noroeste 0 -- -- 96
2017-08-18 10:00:00 16.7 4 Norte 10 Norte 0 -- -- 97
2017-08-18 09:00:00 16.9 4 Sur 7 Sur 0 -- -- 97
2017-08-18 08:00:00 16.3 0 Calma 6 Noroeste 0 -- -- 98
2017-08-18 07:00:00 16.2 0 Calma 5 Noroeste 0 -- -- 98
2017-08-18 06:00:00 16.3 2 Sudeste 5 Sudeste 0 -- -- 98
2017-08-18 05:00:00 16.1 2 Noroeste 5 Noroeste 0 -- -- 97
2017-08-18 04:00:00 16.8 0 Calma 6 Sudeste 0 -- -- 96
2017-08-18 03:00:00 16.8 0 Calma 5 Noroeste 0 -- -- 97
2017-08-18 02:00:00 16.9 0 Calma 12 Noroeste 0.6 -- -- 96
2017-08-18 01:00:00 16.9 6 Norte 61 Norte 0 -- -- 96
2017-08-18 00:00:00 17.9 3 Norte 14 Norte 0 -- -- 92
2017-08-17 23:00:00 18.8 6 Norte 14 Norte 0 -- -- 88
2017-08-17 22:00:00 19.9 7 Norte 20 Noroeste 0 -- -- 85
2017-08-17 21:00:00 21.4 3 Sudeste 6 Sur 0 -- -- 78
2017-08-17 20:00:00 25.1 3 Noroeste 14 Noroeste 0 -- -- 64
2017-08-17 19:00:00 26.9 5 Noroeste 15 Noroeste 0 -- -- 59
2017-08-17 18:00:00 27.9 4 Noroeste 10 Noroeste 0 -- -- 57
2017-08-17 17:00:00 26.9 5 Noroeste 20 Noroeste 0 -- -- 56
2017-08-17 16:00:00 27.1 9 Noroeste 21 Noroeste 0 -- -- 52
2017-08-17 15:00:00 26.5 8 Noroeste 21 Noroeste 0 -- -- 56
2017-08-17 14:00:00 25 10 Noroeste 21 Norte 0 -- -- 62
2017-08-17 13:00:00 23.5 7 Noroeste 23 Noroeste 0 -- -- 70
2017-08-17 12:00:00 22.1 9 Noroeste 23 Noroeste 0 -- -- 72
2017-08-17 11:00:00 18.9 2 Noroeste 10 Noroeste 0 -- -- 86
2017-08-17 10:00:00 13.4 0 Calma 8 Sudeste 0 -- -- 100
2017-08-17 09:00:00 12.5 0 Calma 8 Sudeste 0 -- -- 97
2017-08-17 08:00:00 12.3 2 Sudeste 9 Sudeste 0 -- -- 97
2017-08-17 07:00:00 12.3 5 Sudeste 9 Sudeste 0 -- -- 98
2017-08-17 06:00:00 12.4 5 Sudeste 10 Sur 0 -- -- 97
2017-08-17 05:00:00 13 7 Sudeste 10 Sudeste 0 -- -- 97
2017-08-17 04:00:00 13 2 Sudeste 11 Sudeste 0 -- -- 95
2017-08-17 03:00:00 13.2 6 Sudeste 9 Sudeste 0 -- -- 96
2017-08-17 02:00:00 13.9 4 Sudeste 9 Sudeste 0 -- -- 95
2017-08-17 01:00:00 14.4 0 Calma 7 Sudeste 0 -- -- 93
2017-08-17 00:00:00 15.6 4 Sudeste 9 Sudeste 0 -- -- 91
2017-08-16 23:00:00 16.4 2 Sur 5 Sudeste 0 -- -- 88
2017-08-16 22:00:00 18.8 3 Sur 12 Norte 0 -- -- 82
2017-08-16 21:00:00 21 3 Noroeste 15 Norte 0 -- -- 74
2017-08-16 20:00:00 22.8 2 Norte 8 Noroeste 0 -- -- 66
2017-08-16 19:00:00 25.6 3 Noroeste 13 Noroeste 0 -- -- 53
2017-08-16 18:00:00 25.1 8 Noroeste 24 Noroeste 0 -- -- 51
2017-08-16 17:00:00 25.8 9 Noroeste 20 Noroeste 0 -- -- 49
2017-08-16 16:00:00 25.4 10 Noroeste 22 Noroeste 0 -- -- 46
2017-08-16 15:00:00 25.4 6 Noroeste 17 Noroeste 0 -- -- 44
2017-08-16 14:00:00 24 6 Noroeste 14 Oeste 0 -- -- 38
2017-08-16 13:00:00 21.9 3 Noroeste 10 Noroeste 0 -- -- 42
2017-08-16 12:00:00 19.9 3 Noroeste 8 Noroeste 0 -- -- 67
2017-08-16 11:00:00 16 3 Noroeste 6 Este 0 -- -- 85
2017-08-16 10:00:00 10.6 0 Calma 4 Sudeste 0 -- -- 100
2017-08-16 09:00:00 10.2 2 Sur 8 Sudeste 0 -- -- 98
2017-08-16 08:00:00 10.2 3 Sudeste 9 Sudeste 0 -- -- 97
2017-08-16 07:00:00 10.7 5 Sudeste 8 Este 0 -- -- 97
2017-08-16 06:00:00 11.2 4 Sudeste 9 Sudeste 0 -- -- 95
2017-08-16 05:00:00 12.2 7 Sudeste 13 Sudeste 0 -- -- 91
2017-08-16 04:00:00 13.9 8 Sudeste 13 Sudeste 0.2 -- -- 84
2017-08-16 03:00:00 15.1 3 Sudeste 8 Sudeste 0 -- -- 91
2017-08-16 02:00:00 15.6 2 Noroeste 5 Norte 0 -- -- 98
2017-08-16 01:00:00 15.6 0 Calma 7 Norte 0 -- -- 97
2017-08-16 00:00:00 15.7 4 Norte 9 Noroeste 0 -- -- 96
2017-08-15 23:00:00 16.2 3 Noroeste 8 Norte 0 -- -- 94
2017-08-15 22:00:00 16.5 4 Norte 12 Norte 0 -- -- 94
2017-08-15 21:00:00 17.2 4 Norte 12 Noroeste 0 -- -- 90
2017-08-15 20:00:00 17.9 5 Norte 12 Nordeste 0 -- -- 86
2017-08-15 19:00:00 18.8 6 Noroeste 12 Noroeste 0 -- -- 81
2017-08-15 18:00:00 19.4 6 Noroeste 15 Noroeste 0 -- -- 81
2017-08-15 17:00:00 18.4 5 Noroeste 11 Norte 0 -- -- 86
2017-08-15 16:00:00 17.4 5 Noroeste 10 Oeste 0 -- -- 90
2017-08-15 15:00:00 17.1 5 Norte 15 Norte 0 -- -- 91
2017-08-15 14:00:00 17.7 5 Noroeste 13 Noroeste 0 -- -- 89
2017-08-15 13:00:00 17.2 6 Noroeste 14 Noroeste 0 -- -- 91
2017-08-15 12:00:00 17.3 4 Norte 11 Norte 0 -- -- 92
2017-08-15 11:00:00 17.2 5 Norte 13 Noroeste 0 -- -- 93
2017-08-15 10:00:00 16.2 4 Noroeste 6 Noroeste 0 -- -- 97
2017-08-15 09:00:00 15.9 2 Norte 4 Norte 0 -- -- 98
2017-08-15 08:00:00 15.7 2 Norte 9 Norte 0 -- -- 98
2017-08-15 07:00:00 15.6 4 Norte 9 Noroeste 0.2 -- -- 97
2017-08-15 06:00:00 15.7 5 Norte 12 Norte 0 -- -- 98
2017-08-15 05:00:00 16 5 Norte 13 Norte 0 -- -- 97
2017-08-15 04:00:00 16.3 0 Calma 6 Norte 0.2 -- -- 97
2017-08-15 03:00:00 16.3 3 Norte 5 Noroeste 0.2 -- -- 96
2017-08-15 02:00:00 16.5 3 Norte 6 Noroeste 0.2 -- -- 95
2017-08-15 01:00:00 17 2 Noroeste 8 Norte 0 -- -- 92
2017-08-15 00:00:00 17 4 Norte 10 Nordeste 0 -- -- 91
2017-08-14 23:00:00 17.2 0 Calma 9 Nordeste 0 -- -- 92
2017-08-14 22:00:00 17.7 0 Calma 14 Norte 0 -- -- 87
2017-08-14 21:00:00 19.8 7 Norte 14 Norte 0 -- -- 80
2017-08-14 20:00:00 22 5 Norte 21 Noroeste 0 -- -- 76
2017-08-14 19:00:00 22.1 9 Norte 23 Norte 0 -- -- 79
2017-08-14 18:00:00 23.1 3 Oeste 9 Sur 0.8 -- -- 84
2017-08-14 17:00:00 26.3 3 Norte 18 Norte 0 -- -- 59
2017-08-14 16:00:00 27.3 9 Norte 23 Noroeste 0 -- -- 53
2017-08-14 15:00:00 27.9 6 Noroeste 19 Norte 0 -- -- 51
2017-08-14 14:00:00 27.9 5 Noroeste 18 Noroeste 0 -- -- 46
2017-08-14 13:00:00 25.6 3 Este 10 Noroeste 0 -- -- 57
2017-08-14 12:00:00 24.8 3 Noroeste 8 Noroeste 0 -- -- 66
2017-08-14 11:00:00 23 3 Norte 7 Sudeste 0 -- -- 70
2017-08-14 10:00:00 19.4 4 Este 14 Este 0 -- -- 69
2017-08-14 09:00:00 19.8 5 Este 17 Sur 0 -- -- 58
2017-08-14 08:00:00 22.5 8 Sudeste 26 Este 0 -- -- 44
2017-08-14 07:00:00 20.9 6 Sudeste 24 Sudeste 0 -- -- 51
2017-08-14 06:00:00 13.1 3 Noroeste 11 Norte 0 -- -- 87
2017-08-14 05:00:00 12.6 4 Sur 12 Este 0 -- -- 89
2017-08-14 04:00:00 12.6 5 Sudeste 12 Sudeste 0 -- -- 89
2017-08-14 03:00:00 12.3 3 Sudeste 11 Sudeste 0 -- -- 92
2017-08-14 02:00:00 12.8 2 Sudeste 11 Sudeste 0 -- -- 90
2017-08-14 01:00:00 13.5 4 Sudeste 10 Sudeste 0 -- -- 90
2017-08-14 00:00:00 14.6 5 Sudeste 8 Sudeste 0 -- -- 90
2017-08-13 23:00:00 15.9 5 Sudeste 9 Sudeste 0 -- -- 91
2017-08-13 22:00:00 17.8 3 Sudeste 6 Sudeste 0 -- -- 86
2017-08-13 21:00:00 21.3 0 Calma 12 Noroeste 0 -- -- 76
2017-08-13 20:00:00 24 5 Norte 13 Noroeste 0 -- -- 66
2017-08-13 19:00:00 24.9 8 Noroeste 18 Noroeste 0 -- -- 60
2017-08-13 18:00:00 25.4 8 Noroeste 24 Noroeste 0 -- -- 56
2017-08-13 17:00:00 25.6 9 Norte 21 Norte 0 -- -- 57
2017-08-13 16:00:00 25.3 11 Noroeste 24 Norte 0 -- -- 58
2017-08-13 15:00:00 24.7 10 Noroeste 22 Noroeste 0 -- -- 60
2017-08-13 14:00:00 24.2 8 Noroeste 15 Noroeste 0 -- -- 62
2017-08-13 13:00:00 22.4 7 Noroeste 14 Noroeste 0 -- -- 62
2017-08-13 12:00:00 20.2 6 Noroeste 15 Noroeste 0 -- -- 71
2017-08-13 11:00:00 16.8 3 Noroeste 6 Noroeste 0 -- -- 81
2017-08-13 10:00:00 10.7 2 Este 5 Sudeste 0 -- -- 98
2017-08-13 09:00:00 10.1 5 Sudeste 9 Sudeste 0 -- -- 95
2017-08-13 08:00:00 9.6 5 Sudeste 8 Sudeste 0 -- -- 96
2017-08-13 07:00:00 9.7 4 Sudeste 9 Sudeste 0 -- -- 95
2017-08-13 06:00:00 9.9 4 Sudeste 10 Sudeste 0 -- -- 95
2017-08-13 05:00:00 10.3 5 Sudeste 10 Sudeste 0 -- -- 95
2017-08-13 04:00:00 10.6 4 Sudeste 10 Sudeste 0 -- -- 95
2017-08-13 03:00:00 11.1 3 Sudeste 9 Sudeste 0 -- -- 94
2017-08-13 02:00:00 11.9 3 Sudeste 9 Sur 0 -- -- 94
2017-08-13 01:00:00 12.6 4 Sudeste 8 Sur 0 -- -- 94
2017-08-13 00:00:00 13.6 4 Sudeste 7 Sudeste 0 -- -- 91
2017-08-12 23:00:00 15.4 3 Sudeste 5 Sudeste 0 -- -- 86
2017-08-12 22:00:00 17.3 0 Calma 9 Norte 0 -- -- 80
2017-08-12 21:00:00 19.5 4 Norte 17 Noroeste 0 -- -- 75
2017-08-12 20:00:00 22.2 7 Noroeste 23 Norte 0 -- -- 66
2017-08-12 19:00:00 23.5 8 Norte 21 Noroeste 0 -- -- 60
2017-08-12 18:00:00 24.2 10 Noroeste 22 Noroeste 0 -- -- 54
2017-08-12 17:00:00 24.7 10 Noroeste 23 Noroeste 0 -- -- 52
2017-08-12 16:00:00 24.8 10 Noroeste 23 Noroeste 0 -- -- 44
2017-08-12 15:00:00 24.6 9 Noroeste 18 Noroeste 0 -- -- 38
2017-08-12 14:00:00 23.4 9 Noroeste 17 Noroeste 0 -- -- 41
2017-08-12 13:00:00 21.9 8 Noroeste 16 Noroeste 0 -- -- 43
2017-08-12 12:00:00 19.8 6 Noroeste 12 Noroeste 0 -- -- 48
2017-08-12 11:00:00 15.3 3 Noroeste 5 Este 0 -- -- 75
2017-08-12 10:00:00 8.6 4 Este 8 Sudeste 0 -- -- 95
2017-08-12 09:00:00 7.5 0 Calma 10 Sudeste 0 -- -- 93
2017-08-12 08:00:00 7.1 4 Sudeste 9 Sudeste 0 -- -- 93
2017-08-12 07:00:00 7.3 4 Sudeste 9 Sudeste 0 -- -- 93
2017-08-12 06:00:00 7.6 5 Sudeste 9 Sudeste 0 -- -- 93
2017-08-12 05:00:00 8.2 4 Sudeste 12 Sudeste 0 -- -- 90
2017-08-12 04:00:00 9 5 Sudeste 10 Sur 0 -- -- 90
2017-08-12 03:00:00 9.6 6 Sudeste 11 Sudeste 0 -- -- 89
2017-08-12 02:00:00 10.4 6 Sudeste 12 Sudeste 0 -- -- 89
2017-08-12 01:00:00 11.8 5 Sudeste 11 Sudeste 0 -- -- 85
2017-08-12 00:00:00 13.1 4 Sudeste 8 Sudeste 0 -- -- 90
2017-08-11 23:00:00 14.8 3 Sur 5 Sudeste 0 -- -- 90
2017-08-11 22:00:00 16.3 3 Norte 12 Norte 0 -- -- 85
2017-08-11 21:00:00 17.9 5 Norte 15 Norte 0 -- -- 78
2017-08-11 20:00:00 20.4 6 Norte 22 Noroeste 0 -- -- 69
2017-08-11 19:00:00 21.6 9 Noroeste 19 Noroeste 0 -- -- 62
2017-08-11 18:00:00 22.2 10 Noroeste 21 Noroeste 0 -- -- 51
2017-08-11 17:00:00 22.1 10 Noroeste 22 Noroeste 0 -- -- 51
2017-08-11 16:00:00 22 9 Noroeste 19 Noroeste 0 -- -- 47
2017-08-11 15:00:00 21.3 10 Noroeste 21 Noroeste 0 -- -- 50
2017-08-11 14:00:00 20.5 9 Noroeste 18 Noroeste 0 -- -- 36
2017-08-11 13:00:00 18.7 5 Noroeste 12 Noroeste 0 -- -- 36
2017-08-11 12:00:00 16.4 3 Noroeste 10 Noroeste 0 -- -- 45
2017-08-11 11:00:00 12.3 5 Nordeste 8 Nordeste 0 -- -- 67
2017-08-11 10:00:00 6.4 3 Este 8 Sudeste 0 -- -- 91
2017-08-11 09:00:00 5.3 5 Sudeste 10 Sudeste 0 -- -- 91
2017-08-11 08:00:00 5.1 0 Calma 9 Sudeste 0 -- -- 92
2017-08-11 07:00:00 6.3 5 Sudeste 10 Sudeste 0 -- -- 91
2017-08-11 06:00:00 7.3 6 Sudeste 9 Sudeste 0 -- -- 93
2017-08-11 05:00:00 7.9 5 Sudeste 10 Sudeste 0 -- -- 89
2017-08-11 04:00:00 7.5 4 Sudeste 9 Sudeste 0 -- -- 90
2017-08-11 03:00:00 8.3 3 Sudeste 13 Sudeste 0 -- -- 90
2017-08-11 02:00:00 9.2 4 Sudeste 9 Sudeste 0 -- -- 88
2017-08-11 01:00:00 9.6 0 Calma 3 Norte 0 -- -- 92
2017-08-11 00:00:00 10.6 0 Calma 8 Sudeste 0 -- -- 93
2017-08-10 23:00:00 10.5 3 Sudeste 5 Sudeste 0 -- -- 92
2017-08-10 22:00:00 12.4 0 Calma 12 Oeste 0 -- -- 85
2017-08-10 21:00:00 14.4 5 Norte 14 Norte 0 -- -- 79
2017-08-10 20:00:00 15.6 4 Noroeste 10 Norte 0 -- -- 73
2017-08-10 19:00:00 16 3 Noroeste 14 Noroeste 0 -- -- 67
2017-08-10 18:00:00 16.3 5 Noroeste 20 Noroeste 0 -- -- 67
2017-08-10 17:00:00 17.7 9 Noroeste 21 Noroeste 0 -- -- 62
2017-08-10 16:00:00 18.3 8 Noroeste 21 Noroeste 0 -- -- 64
2017-08-10 15:00:00 16.6 8 Noroeste 19 Norte 0 -- -- 65
2017-08-10 14:00:00 15.1 4 Noroeste 17 Norte 0 -- -- 71
2017-08-10 13:00:00 14.3 6 Norte 15 Norte 0 -- -- 75
2017-08-10 12:00:00 12.4 4 Norte 9 Norte 0 -- -- 85
2017-08-10 11:00:00 11.4 3 Noroeste 9 Noroeste 0 -- -- 85
2017-08-10 10:00:00 9.7 0 Calma 3 Sudeste 0 -- -- 91
2017-08-10 09:00:00 8.9 0 Calma 3 Sudeste 0 -- -- 97
2017-08-10 08:00:00 8.2 0 Calma 5 Este 0 -- -- 98
2017-08-10 07:00:00 7.8 2 Sudeste 8 Sudeste 0 -- -- 98
2017-08-10 06:00:00 7.6 2 Sudeste 6 Sudeste 0 -- -- 98
2017-08-10 05:00:00 7.7 0 Calma 6 Este 0 -- -- 99
2017-08-10 04:00:00 7 2 Sur 8 Sudeste 0 -- -- 98
2017-08-10 03:00:00 7.8 2 Este 7 Sudeste 0 -- -- 96
2017-08-10 02:00:00 8.4 3 Sudeste 9 Sudeste 0 -- -- 96
2017-08-10 01:00:00 8 2 Sudeste 8 Sudeste 0 -- -- 97
2017-08-10 00:00:00 8.4 2 Sudeste 4 Nordeste 0 -- -- 94
2017-08-09 23:00:00 10.3 0 Calma 5 Noroeste 0 -- -- 94
2017-08-09 22:00:00 10.7 3 Norte 7 Noroeste 0 -- -- 94
2017-08-09 21:00:00 11.3 0 Calma 12 Norte 0 -- -- 90
2017-08-09 20:00:00 11.9 4 Noroeste 18 Norte 0 -- -- 86
2017-08-09 19:00:00 11.9 7 Norte 16 Norte 0 -- -- 81
2017-08-09 18:00:00 12.2 6 Norte 12 Norte 0 -- -- 90
2017-08-09 17:00:00 11.7 4 Norte 13 Noroeste 0.2 -- -- 92
2017-08-09 16:00:00 11.5 6 Norte 15 Nordeste 0.6 -- -- 91
2017-08-09 15:00:00 11.6 6 Norte 19 Norte 0.4 -- -- 88
2017-08-09 14:00:00 11.5 6 Norte 22 Noroeste 0 -- -- 84
2017-08-09 13:00:00 10.9 8 Norte 18 Noroeste 0.2 -- -- 92
2017-08-09 12:00:00 11.5 6 Norte 16 Noroeste 0 -- -- 87
2017-08-09 11:00:00 10.1 4 Norte 10 Norte 0.2 -- -- 97
2017-08-09 10:00:00 9.6 5 Norte 19 Norte 0.4 -- -- 98
2017-08-09 09:00:00 9.6 6 Norte 14 Noroeste 1 -- -- 97
2017-08-09 08:00:00 10 6 Norte 17 Norte 0.2 -- -- 95
2017-08-09 07:00:00 10.7 2 Norte 10 Noroeste 0 -- -- 89
2017-08-09 06:00:00 10.7 5 Norte 15 Norte 0 -- -- 91
2017-08-09 05:00:00 10.2 0 Calma 4 Sudeste 0 -- -- 95
2017-08-09 04:00:00 11 0 Calma 3 Oeste 0 -- -- 93
2017-08-09 03:00:00 11.4 0 Calma 3 Oeste 0 -- -- 92
2017-08-09 02:00:00 11.6 0 Calma 3 Oeste 0 -- -- 91
2017-08-09 01:00:00 11.9 0 Calma 4 Nordeste 0 -- -- 86
2017-08-09 00:00:00 12.1 2 Norte 8 Norte 0 -- -- 88
2017-08-08 23:00:00 12.4 3 Norte 8 Norte 0 -- -- 85
2017-08-08 22:00:00 12.9 3 Norte 13 Norte 0 -- -- 82
2017-08-08 21:00:00 13.6 5 Norte 12 Noroeste 0 -- -- 81
2017-08-08 20:00:00 14.7 5 Norte 11 Norte 0 -- -- 78
2017-08-08 19:00:00 16 6 Norte 17 Norte 0 -- -- 71
2017-08-08 18:00:00 17.2 7 Norte 16 Noroeste 0 -- -- 63
2017-08-08 17:00:00 17.7 5 Norte 20 Noroeste 0 -- -- 60
2017-08-08 16:00:00 17 12 Noroeste 24 Norte 0 -- -- 66
2017-08-08 15:00:00 16.8 12 Noroeste 25 Noroeste 0 -- -- 71
2017-08-08 14:00:00 16.1 9 Noroeste 17 Noroeste 0 -- -- 65
2017-08-08 13:00:00 14.1 6 Norte 14 Noroeste 0 -- -- 81
2017-08-08 12:00:00 11.5 5 Norte 18 Noroeste 0 -- -- 95
2017-08-08 11:00:00 11.3 6 Norte 17 Noroeste 0 -- -- 95
2017-08-08 10:00:00 10.9 0 Calma 7 Sudeste 0 -- -- 93
2017-08-08 09:00:00 9.8 0 Calma 4 Noroeste 0 -- -- 98
2017-08-08 08:00:00 9.4 3 Noroeste 12 Sudeste 0 -- -- 99
2017-08-08 07:00:00 9.1 4 Sudeste 7 Sudeste 0 -- -- 97
2017-08-08 06:00:00 10.2 2 Oeste 6 Norte 0 -- -- 99
2017-08-08 05:00:00 10.5 0 Calma 6 Norte 0.2 -- -- 99
2017-08-08 04:00:00 10.5 3 Norte 7 Nordeste 0 -- -- 99
2017-08-08 03:00:00 10.6 2 Noroeste 13 Noroeste 0 -- -- 99
2017-08-08 02:00:00 10.7 4 Norte 15 Norte 0 -- -- 98
2017-08-08 01:00:00 11.2 6 Norte 18 Norte 0 -- -- 99
2017-08-08 00:00:00 11.8 5 Norte 13 Noroeste 0.2 -- -- 100
2017-08-07 23:00:00 12 6 Norte 13 Norte 0.2 -- -- 99
2017-08-07 22:00:00 12.3 5 Norte 15 Norte 0.2 -- -- 99
2017-08-07 21:00:00 12.8 7 Norte 19 Norte 1.2 -- -- 98
2017-08-07 20:00:00 13.8 8 Norte 18 Norte 0.4 -- -- 97
2017-08-07 19:00:00 14.5 6 Norte 15 Norte 0.2 -- -- 97
2017-08-07 18:00:00 15.7 5 Norte 14 Noroeste 0 -- -- 91
2017-08-07 17:00:00 16.2 5 Noroeste 11 Norte 0 -- -- 87
2017-08-07 16:00:00 16.3 3 Noroeste 9 Noroeste 0 -- -- 86
2017-08-07 15:00:00 15.8 5 Norte 13 Norte 0 -- -- 88
2017-08-07 14:00:00 15.9 7 Norte 15 Oeste 0 -- -- 87
2017-08-07 13:00:00 16 4 Noroeste 11 Noroeste 0 -- -- 84
2017-08-07 12:00:00 15.1 6 Noroeste 13 Noroeste 0 -- -- 88
2017-08-07 11:00:00 14.6 3 Noroeste 6 Noroeste 0 -- -- 89
2017-08-07 10:00:00 13.3 0 Calma 5 Sudeste 0 -- -- 92
2017-08-07 09:00:00 12.6 3 Sudeste 7 Sudeste 0 -- -- 96
2017-08-07 08:00:00 12.2 4 Sudeste 8 Sudeste 0 -- -- 98
2017-08-07 07:00:00 12.3 3 Sudeste 6 Sudeste 0 -- -- 97
2017-08-07 06:00:00 12.7 3 Sudeste 5 Sudeste 0 -- -- 96
2017-08-07 05:00:00 12.9 3 Sudeste 5 Sudeste 0 -- -- 95
2017-08-07 04:00:00 13.1 3 Sudeste 5 Sudeste 0 -- -- 97
2017-08-07 03:00:00 13.2 2 Noroeste 3 Noroeste 0 -- -- 98
2017-08-07 02:00:00 13.3 2 Noroeste 4 Noroeste 0 -- -- 98
2017-08-07 01:00:00 13.4 2 Noroeste 4 Oeste 0 -- -- 98
2017-08-07 00:00:00 13.5 0 Calma 6 Norte 0 -- -- 97
2017-08-06 23:00:00 13.5 4 Norte 8 Noroeste 0 -- -- 97
2017-08-06 22:00:00 13.9 3 Norte 9 Noroeste 0 -- -- 96
2017-08-06 21:00:00 14.5 5 Norte 10 Noroeste 0 -- -- 92
2017-08-06 20:00:00 15.3 5 Noroeste 12 Noroeste 0 -- -- 87
2017-08-06 19:00:00 15.8 5 Noroeste 14 Noroeste 0 -- -- 85
2017-08-06 18:00:00 16.5 5 Noroeste 12 Noroeste 0 -- -- 83
2017-08-06 17:00:00 16.8 5 Noroeste 13 Noroeste 0 -- -- 81
2017-08-06 16:00:00 17 6 Noroeste 13 Noroeste 0 -- -- 77
2017-08-06 15:00:00 16.7 5 Noroeste 13 Noroeste 0 -- -- 80
2017-08-06 14:00:00 16.1 7 Noroeste 14 Noroeste 0 -- -- 82
2017-08-06 13:00:00 15.4 6 Norte 15 Noroeste 0 -- -- 84
2017-08-06 12:00:00 14.8 4 Noroeste 12 Norte 0 -- -- 89
2017-08-06 11:00:00 13.8 4 Noroeste 9 Norte 0 -- -- 95
2017-08-06 10:00:00 13 4 Noroeste 9 Noroeste 0.2 -- -- 99
2017-08-06 09:00:00 12.6 4 Norte 8 Noroeste 0 -- -- 99
2017-08-06 08:00:00 12.7 3 Norte 8 Noroeste 0.4 -- -- 100
2017-08-06 07:00:00 12.6 3 Norte 10 Norte 0.4 -- -- 100
2017-08-06 06:00:00 12.7 4 Norte 8 Norte 0.4 -- -- 100
2017-08-06 05:00:00 12.7 4 Norte 9 Nordeste 0.4 -- -- 100
2017-08-06 04:00:00 12.7 3 Norte 9 Norte 0.4 -- -- 100
2017-08-06 03:00:00 12.7 3 Norte 8 Noroeste 0.2 -- -- 99
2017-08-06 02:00:00 12.7 4 Norte 8 Norte 0.2 -- -- 99
2017-08-06 01:00:00 12.8 3 Norte 9 Nordeste 0.2 -- -- 99
2017-08-06 00:00:00 13 4 Norte 9 Norte 0.2 -- -- 99
2017-08-05 23:00:00 13.2 4 Norte 10 Norte 0 -- -- 97
2017-08-05 22:00:00 13.6 5 Norte 13 Norte 0 -- -- 96
2017-08-05 21:00:00 14 5 Norte 13 Noroeste 0 -- -- 95
2017-08-05 20:00:00 14.6 4 Norte 13 Norte 0 -- -- 94
2017-08-05 19:00:00 15 6 Norte 14 Norte 0 -- -- 94
2017-08-05 18:00:00 15.1 7 Norte 16 Norte 0 -- -- 95
2017-08-05 17:00:00 15.4 6 Norte 16 Norte 0 -- -- 95
2017-08-05 16:00:00 16 7 Norte 15 Noroeste 0 -- -- 93
2017-08-05 15:00:00 15.8 5 Norte 14 Norte 0.2 -- -- 97
2017-08-05 14:00:00 15.1 5 Norte 16 Noroeste 0.2 -- -- 98
2017-08-05 13:00:00 15.1 5 Norte 17 Noroeste 0.2 -- -- 99
2017-08-05 12:00:00 15.1 7 Norte 17 Norte 0 -- -- 97
2017-08-05 11:00:00 15.6 6 Noroeste 13 Noroeste 0 -- -- 97
2017-08-05 10:00:00 14.9 5 Norte 13 Noroeste 0.2 -- -- 99
2017-08-05 09:00:00 14.6 3 Norte 9 Norte 0.4 -- -- 99
2017-08-05 08:00:00 14.4 4 Norte 13 Norte 0.4 -- -- 99
2017-08-05 07:00:00 15 7 Norte 16 Norte 1 -- -- 98
2017-08-05 06:00:00 16 6 Norte 16 Noroeste 0.2 -- -- 98
2017-08-05 05:00:00 17.4 7 Norte 14 Noroeste 0.2 -- -- 98
2017-08-05 04:00:00 17.9 5 Norte 11 Norte 0.4 -- -- 98
2017-08-05 03:00:00 18.3 6 Norte 12 Noroeste 1 -- -- 98
2017-08-05 02:00:00 18.7 4 Norte 9 Norte 0.2 -- -- 97
2017-08-05 01:00:00 19.1 3 Norte 9 Norte 0 -- -- 96
2017-08-05 00:00:00 19.7 3 Norte 9 Noroeste 0 -- -- 94
2017-08-04 23:00:00 20.4 3 Noroeste 11 Noroeste 0 -- -- 91
2017-08-04 22:00:00 20.9 4 Norte 12 Norte 0 -- -- 89
2017-08-04 21:00:00 22 5 Norte 16 Norte 0 -- -- 84
2017-08-04 20:00:00 23.5 6 Norte 24 Norte 0 -- -- 80
2017-08-04 19:00:00 25.2 7 Norte 18 Noroeste 0 -- -- 75
2017-08-04 18:00:00 27 6 Noroeste 25 Noroeste 0 -- -- 69
2017-08-04 17:00:00 28.8 10 Noroeste 23 Noroeste 0 -- -- 62
2017-08-04 16:00:00 29.1 9 Noroeste 35 Noroeste 0 -- -- 58
2017-08-04 15:00:00 28.7 12 Noroeste 26 Noroeste 0 -- -- 58
2017-08-04 14:00:00 28.2 10 Noroeste 23 Noroeste 0 -- -- 56
2017-08-04 13:00:00 27.8 5 Noroeste 13 Noroeste 0 -- -- 52
2017-08-04 12:00:00 26.3 4 Norte 13 Noroeste 0 -- -- 59
2017-08-04 11:00:00 21.8 3 Este 8 Nordeste 0 -- -- 84
2017-08-04 10:00:00 15.7 2 Este 5 Sudeste 0 -- -- 100
2017-08-04 09:00:00 14.6 3 Sudeste 9 Sudeste 0 -- -- 98
2017-08-04 08:00:00 14.4 3 Sudeste 10 Sudeste 0 -- -- 98
2017-08-04 07:00:00 14 6 Sudeste 10 Sudeste 0 -- -- 97
2017-08-04 06:00:00 14.7 6 Sudeste 12 Sudeste 0 -- -- 97
2017-08-04 05:00:00 14.7 5 Sudeste 7 Sudeste 0 -- -- 96
2017-08-04 04:00:00 15.5 3 Sudeste 10 Este 0 -- -- 96
2017-08-04 03:00:00 15.8 2 Sudeste 9 Sudeste 0 -- -- 95
2017-08-04 02:00:00 16.3 4 Sudeste 9 Sudeste 0 -- -- 96
2017-08-04 01:00:00 16.1 4 Sudeste 10 Sudeste 0 -- -- 95
2017-08-04 00:00:00 16.9 0 Calma 8 Sudeste 0 -- -- 93
2017-08-03 23:00:00 18.3 0 Calma 3 Norte 0 -- -- 91
2017-08-03 22:00:00 19.5 3 Norte 8 Noroeste 0 -- -- 88
2017-08-03 21:00:00 20.8 6 Norte 15 Norte 0 -- -- 83
2017-08-03 20:00:00 23.2 6 Noroeste 21 Noroeste 0 -- -- 75
2017-08-03 19:00:00 24.4 10 Noroeste 19 Noroeste 0 -- -- 72
2017-08-03 18:00:00 25 11 Norte 21 Noroeste 0 -- -- 71
2017-08-03 17:00:00 25.9 8 Noroeste 19 Noroeste 0 -- -- 65
2017-08-03 16:00:00 26 9 Norte 22 Noroeste 0 -- -- 64
2017-08-03 15:00:00 25.7 10 Noroeste 23 Noroeste 0 -- -- 61
2017-08-03 14:00:00 25.3 10 Noroeste 18 Noroeste 0 -- -- 62
2017-08-03 13:00:00 24.1 7 Noroeste 20 Noroeste 0 -- -- 63
2017-08-03 12:00:00 22.8 6 Noroeste 16 Noroeste 0 -- -- 67
2017-08-03 11:00:00 20.3 4 Norte 14 Norte 0 -- -- 82
2017-08-03 10:00:00 14.6 0 Calma 9 Sudeste 0 -- -- 100
2017-08-03 09:00:00 13.4 2 Sudeste 8 Sudeste 0 -- -- 97
2017-08-03 08:00:00 13.1 5 Sudeste 10 Sudeste 0 -- -- 97
2017-08-03 07:00:00 13.1 6 Sudeste 10 Sudeste 0 -- -- 98
2017-08-03 06:00:00 13.2 2 Sudeste 11 Sudeste 0 -- -- 97
2017-08-03 05:00:00 13 4 Sudeste 7 Sudeste 0 -- -- 97
2017-08-03 04:00:00 13.9 7 Sudeste 11 Sudeste 0 -- -- 96
2017-08-03 03:00:00 14.5 4 Sudeste 9 Sudeste 0 -- -- 95
2017-08-03 02:00:00 14.9 5 Sudeste 10 Sudeste 0 -- -- 96
2017-08-03 01:00:00 15.4 6 Sudeste 12 Sudeste 0 -- -- 93
2017-08-03 00:00:00 16.1 4 Sudeste 9 Sudeste 0 -- -- 93
2017-08-02 23:00:00 17.6 3 Sudeste 8 Sudeste 0 -- -- 89
2017-08-02 22:00:00 19.2 0 Calma 9 Sudeste 0 -- -- 87
2017-08-02 21:00:00 21.6 6 Sudeste 9 Sudeste 0 -- -- 78
2017-08-02 20:00:00 24.7 2 Sudoeste 15 Noroeste 0 -- -- 67
2017-08-02 19:00:00 24.9 8 Noroeste 18 Noroeste 0 -- -- 65
2017-08-02 18:00:00 25.1 9 Noroeste 23 Noroeste 0 -- -- 65
2017-08-02 17:00:00 25.6 11 Noroeste 24 Norte 0 -- -- 62
2017-08-02 16:00:00 25.9 10 Noroeste 30 Noroeste 0 -- -- 57
2017-08-02 15:00:00 25.9 9 Noroeste 20 Noroeste 0 -- -- 54
2017-08-02 14:00:00 24.5 7 Noroeste 19 Noroeste 0 -- -- 54
2017-08-02 13:00:00 23.6 7 Noroeste 17 Noroeste 0 -- -- 56
2017-08-02 12:00:00 21.2 5 Noroeste 9 Noroeste 0 -- -- 63
2017-08-02 11:00:00 16.6 6 Nordeste 8 Nordeste 0 -- -- 88
2017-08-02 10:00:00 11.1 0 Calma 9 Este 0 -- -- 100
2017-08-02 09:00:00 9.7 0 Calma 15 Sudeste 0 -- -- 99
2017-08-02 08:00:00 9.6 5 Sudeste 10 Sudeste 0 -- -- 99
2017-08-02 07:00:00 9.7 4 Sudeste 9 Sudeste 0 -- -- 99
2017-08-02 06:00:00 10.2 5 Sudeste 11 Sudeste 0 -- -- 99
2017-08-02 05:00:00 10.2 4 Sudeste 13 Sudeste 0 -- -- 98
2017-08-02 04:00:00 10.9 5 Sudeste 9 Sudeste 0 -- -- 98
2017-08-02 03:00:00 11.4 2 Sudeste 7 Sudeste 0 -- -- 97
2017-08-02 02:00:00 12.9 3 Sudeste 8 Este 0 -- -- 95
2017-08-02 01:00:00 14.5 0 Calma 8 Sudeste 0 -- -- 97
2017-08-02 00:00:00 14.9 0 Calma 5 Sudeste 0 -- -- 97
2017-08-01 23:00:00 15 2 Sudeste 5 Sudeste 0.2 -- -- 97
2017-08-01 22:00:00 15.1 2 Oeste 8 Norte 0 -- -- 96
2017-08-01 21:00:00 15.4 4 Norte 9 Norte 0 -- -- 95
2017-08-01 20:00:00 16 4 Norte 12 Norte 0 -- -- 92
2017-08-01 19:00:00 16.4 5 Noroeste 12 Noroeste 0 -- -- 88
2017-08-01 18:00:00 16.2 4 Noroeste 13 Noroeste 0 -- -- 89
2017-08-01 17:00:00 16.3 4 Norte 18 Noroeste 0 -- -- 89
2017-08-01 16:00:00 17.1 8 Norte 17 Noroeste 0 -- -- 84
2017-08-01 15:00:00 18.5 8 Noroeste 17 Noroeste 0 -- -- 79
2017-08-01 14:00:00 17.9 7 Noroeste 17 Noroeste 0 -- -- 80
2017-08-01 13:00:00 17.8 7 Noroeste 18 Noroeste 0 -- -- 82
2017-08-01 12:00:00 16.3 6 Noroeste 14 Noroeste 0 -- -- 87
2017-08-01 11:00:00 15.1 5 Norte 11 Noroeste 0 -- -- 92
2017-08-01 10:00:00 14 3 Oeste 7 Noroeste 0 -- -- 96
2017-08-01 09:00:00 13.3 3 Noroeste 8 Noroeste 0 -- -- 99
2017-08-01 08:00:00 13.1 2 Norte 6 Noroeste 0 -- -- 99
2017-08-01 07:00:00 13 2 Noroeste 4 Norte 0.2 -- -- 99
2017-08-01 06:00:00 12.9 3 Norte 10 Noroeste 0 -- -- 99
2017-08-01 05:00:00 13.1 4 Noroeste 8 Noroeste 0 -- -- 98
2017-08-01 04:00:00 13.3 0 Calma 9 Norte 0.2 -- -- 98
2017-08-01 03:00:00 13.3 3 Norte 8 Norte 0 -- -- 99
2017-08-01 02:00:00 13.5 4 Norte 8 Norte 0 -- -- 98
2017-08-01 01:00:00 13.8 2 Norte 6 Norte 0 -- -- 98
2017-08-01 00:00:00 13.9 3 Norte 7 Nordeste 0.2 -- -- 98
2017-07-31 23:00:00 14 3 Norte 6 Norte 0 -- -- 98
2017-07-31 22:00:00 14.1 3 Norte 6 Norte 0.2 -- -- 97
2017-07-31 21:00:00 14.5 3 Norte 8 Noroeste 0 -- -- 95
2017-07-31 20:00:00 14.8 5 Norte 9 Noroeste 0 -- -- 93
2017-07-31 19:00:00 15.4 4 Norte 10 Noroeste 0 -- -- 88
2017-07-31 18:00:00 15.8 4 Noroeste 12 Noroeste 0 -- -- 86
2017-07-31 17:00:00 16 4 Noroeste 12 Noroeste 0 -- -- 84
2017-07-31 16:00:00 16.2 5 Norte 14 Noroeste 0 -- -- 82
2017-07-31 15:00:00 16.6 5 Norte 18 Noroeste 0 -- -- 80
2017-07-31 14:00:00 16.4 6 Noroeste 11 Noroeste 0 -- -- 81
2017-07-31 13:00:00 15.4 0 Calma 11 Noroeste 0 -- -- 83
2017-07-31 12:00:00 15.1 6 Noroeste 14 Noroeste 0 -- -- 86
2017-07-31 11:00:00 14.1 4 Norte 13 Noroeste 0 -- -- 92
2017-07-31 10:00:00 13.2 4 Norte 11 Norte 0 -- -- 95
2017-07-31 09:00:00 12.6 4 Sudeste 8 Sur 0 -- -- 96
2017-07-31 08:00:00 12.4 2 Noroeste 6 Noroeste 0 -- -- 97
2017-07-31 07:00:00 12.3 2 Noroeste 4 Noroeste 0 -- -- 97
2017-07-31 06:00:00 12.3 3 Noroeste 6 Noroeste 0 -- -- 96
2017-07-31 05:00:00 12.3 2 Noroeste 6 Noroeste 0 -- -- 96
2017-07-31 04:00:00 12.3 3 Norte 10 Norte 0 -- -- 96
2017-07-31 03:00:00 12.8 6 Norte 13 Norte 0.2 -- -- 97
2017-07-31 02:00:00 13.2 4 Norte 10 Norte 0 -- -- 98
2017-07-31 01:00:00 13.6 4 Norte 10 Norte 0 -- -- 97
2017-07-31 00:00:00 13.8 5 Norte 11 Norte 0 -- -- 97
2017-07-30 23:00:00 14.3 4 Norte 11 Norte 0 -- -- 97
2017-07-30 22:00:00 14.7 3 Norte 9 Norte 0 -- -- 95
2017-07-30 21:00:00 15 4 Norte 11 Norte 0.4 -- -- 95
2017-07-30 20:00:00 15.7 5 Norte 19 Noroeste 0.2 -- -- 93
2017-07-30 19:00:00 16.7 6 Norte 19 Noroeste 0 -- -- 86
2017-07-30 18:00:00 18.1 7 Noroeste 23 Noroeste 0 -- -- 82
2017-07-30 17:00:00 19.9 10 Norte 30 Noroeste 0 -- -- 76
2017-07-30 16:00:00 21.4 9 Noroeste 22 Noroeste 0 -- -- 68
2017-07-30 15:00:00 22.4 7 Norte 22 Noroeste 0 -- -- 64
2017-07-30 14:00:00 21.5 11 Noroeste 27 Noroeste 0 -- -- 68
2017-07-30 13:00:00 22 10 Noroeste 22 Noroeste 0 -- -- 67
2017-07-30 12:00:00 21.4 8 Noroeste 17 Norte 0 -- -- 67
2017-07-30 11:00:00 19.9 4 Norte 9 Norte 0 -- -- 72
2017-07-30 10:00:00 17 0 Calma 11 Norte 0 -- -- 88
2017-07-30 09:00:00 16.3 3 Sudeste 8 Sudeste 0 -- -- 83
2017-07-30 08:00:00 16 0 Calma 4 Noroeste 0 -- -- 95
2017-07-30 07:00:00 16.4 0 Calma 7 Noroeste 0 -- -- 94
2017-07-30 06:00:00 16.8 0 Calma 4 Noroeste 0 -- -- 92
2017-07-30 05:00:00 17.4 0 Calma 4 Nordeste 0 -- -- 89
2017-07-30 04:00:00 17.7 2 Noroeste 8 Norte 0 -- -- 88
2017-07-30 03:00:00 18.2 3 Noroeste 6 Norte 0 -- -- 87
2017-07-30 02:00:00 18.9 4 Norte 9 Norte 0 -- -- 86
2017-07-30 01:00:00 19.4 4 Norte 9 Norte 0 -- -- 83
2017-07-30 00:00:00 19.8 4 Norte 11 Noroeste 0 -- -- 85
2017-07-29 23:00:00 20.6 0 Calma 11 Nordeste 0 -- -- 84
2017-07-29 22:00:00 22 0 Calma 7 Noroeste 0 -- -- 79
2017-07-29 21:00:00 25.1 4 Noroeste 17 Norte 0 -- -- 70
2017-07-29 20:00:00 26.6 5 Noroeste 15 Norte 0 -- -- 63
2017-07-29 19:00:00 27.9 9 Noroeste 19 Noroeste 0 -- -- 58
2017-07-29 18:00:00 28.4 8 Noroeste 19 Noroeste 0 -- -- 57
2017-07-29 17:00:00 28.6 9 Noroeste 23 Noroeste 0 -- -- 57
2017-07-29 16:00:00 28.6 7 Noroeste 18 Noroeste 0 -- -- 52
2017-07-29 15:00:00 27.5 10 Noroeste 21 Noroeste 0 -- -- 52
2017-07-29 14:00:00 26.1 4 Noroeste 13 Noroeste 0 -- -- 53
2017-07-29 13:00:00 23.9 4 Noroeste 10 Oeste 0 -- -- 66
2017-07-29 12:00:00 21.6 3 Norte 13 Oeste 0 -- -- 75
2017-07-29 11:00:00 21.4 4 Noroeste 9 Noroeste 0 -- -- 75
2017-07-29 10:00:00 18.3 4 Nordeste 10 Nordeste 0 -- -- 87
2017-07-29 09:00:00 16.6 5 Este 9 Este 0 -- -- 93
2017-07-29 08:00:00 15.1 3 Sudeste 10 Sudeste 0 -- -- 96
2017-07-29 07:00:00 15.1 0 Calma 9 Sudeste 0 -- -- 96
2017-07-29 06:00:00 15.4 4 Sudeste 9 Sudeste 0 -- -- 96
2017-07-29 05:00:00 16.3 0 Calma 7 Sudeste 0 -- -- 92
2017-07-29 04:00:00 17.4 3 Sudeste 8 Sudeste 0 -- -- 90
2017-07-29 03:00:00 18.2 3 Sudeste 6 Sudeste 0 -- -- 87
2017-07-29 02:00:00 18.5 0 Calma 4 Sudoeste 0 -- -- 85
2017-07-29 01:00:00 18.7 0 Calma 9 Norte 0 -- -- 83
2017-07-29 00:00:00 19.6 0 Calma 9 Noroeste 0 -- -- 83
2017-07-28 23:00:00 19.8 5 Norte 13 Norte 0 -- -- 82
2017-07-28 22:00:00 20.9 5 Norte 15 Noroeste 0 -- -- 81
2017-07-28 21:00:00 23.1 8 Norte 19 Noroeste 0 -- -- 72
2017-07-28 20:00:00 24.2 7 Norte 19 Noroeste 0 -- -- 67
2017-07-28 19:00:00 25.7 10 Noroeste 18 Noroeste 0 -- -- 61
2017-07-28 18:00:00 25.9 9 Noroeste 21 Noroeste 0 -- -- 57
2017-07-28 17:00:00 26.3 9 Noroeste 27 Noroeste 0 -- -- 54
2017-07-28 16:00:00 26.8 10 Noroeste 23 Noroeste 0 -- -- 49
2017-07-28 15:00:00 26.4 9 Noroeste 23 Noroeste 0 -- -- 45
2017-07-28 14:00:00 25.4 6 Noroeste 15 Noroeste 0 -- -- 48
2017-07-28 13:00:00 23.5 5 Noroeste 12 Noroeste 0 -- -- 44
2017-07-28 12:00:00 20.8 4 Noroeste 8 Noroeste -- -- -- 63
2017-07-28 11:00:00 17.6 2 Norte 10 Noroeste 0 -- -- 85
2017-07-28 10:00:00 11.8 3 Nordeste 7 Sudeste 0 -- -- 100
2017-07-28 09:00:00 10.2 4 Sudeste 11 Sudeste 0 -- -- 94
2017-07-28 08:00:00 10.2 6 Sudeste 12 Sudeste 0 -- -- 94
2017-07-28 07:00:00 11.2 5 Sudeste 12 Sudeste 0 -- -- 94
2017-07-28 06:00:00 13.1 3 Sudeste 12 Sudeste 0 -- -- 93
2017-07-28 05:00:00 15.5 4 Sudeste 8 Sudeste 0 -- -- 93
2017-07-28 04:00:00 16.2 3 Noroeste 5 Norte 0 -- -- 98
2017-07-28 03:00:00 16.2 3 Norte 12 Noroeste 0 -- -- 98
2017-07-28 02:00:00 16.7 2 Norte 6 Norte 0.2 -- -- 97
2017-07-28 01:00:00 16.9 2 Noroeste 10 Norte 0.2 -- -- 97
2017-07-28 00:00:00 17.3 4 Norte 13 Norte 0.2 -- -- 96
2017-07-27 23:00:00 18 6 Norte 16 Norte 0 -- -- 93
2017-07-27 22:00:00 19.1 3 Norte 15 Nordeste 0 -- -- 90
2017-07-27 21:00:00 20.9 7 Norte 18 Norte 0 -- -- 83
2017-07-27 20:00:00 23 7 Norte 15 Noroeste 0 -- -- 77
2017-07-27 19:00:00 24.7 6 Noroeste 20 Noroeste 0 -- -- 69
2017-07-27 18:00:00 26 8 Norte 25 Noroeste 0 -- -- 65
2017-07-27 17:00:00 26.5 10 Noroeste 23 Noroeste 0 -- -- 63
2017-07-27 16:00:00 27.2 9 Norte 23 Noroeste 0 -- -- 57
2017-07-27 15:00:00 26.8 10 Noroeste 23 Noroeste 0 -- -- 58
2017-07-27 14:00:00 26.8 10 Noroeste 21 Noroeste 0 -- -- 52
2017-07-27 13:00:00 26.1 6 Noroeste 15 Norte 0 -- -- 51
2017-07-27 12:00:00 24 2 Norte 6 Oeste 0 -- -- 53
2017-07-27 11:00:00 19.9 2 Nordeste 9 Norte 0 -- -- 73
2017-07-27 10:00:00 13.3 2 Nordeste 6 Nordeste 0 -- -- 99
2017-07-27 09:00:00 12.1 2 Sudeste 8 Sur 0 -- -- 96
2017-07-27 08:00:00 12 4 Sudeste 9 Sudeste 0 -- -- 96
2017-07-27 07:00:00 12.2 7 Sudeste 10 Sudeste 0 -- -- 97
2017-07-27 06:00:00 12.7 3 Sudeste 10 Sudeste 0 -- -- 96
2017-07-27 05:00:00 13 4 Sudeste 9 Sudeste 0 -- -- 96
2017-07-27 04:00:00 13.1 3 Sudeste 9 Sudeste 0 -- -- 95
2017-07-27 03:00:00 13.7 4 Sudeste 10 Sudeste 0 -- -- 95
2017-07-27 02:00:00 14.2 3 Sudeste 9 Sur 0 -- -- 94
2017-07-27 01:00:00 14.7 3 Sudeste 8 Sudeste 0 -- -- 93
2017-07-27 00:00:00 15.7 4 Sudeste 8 Sudeste 0 -- -- 91
2017-07-26 23:00:00 17.3 2 Sur 6 Sudeste 0 -- -- 87
2017-07-26 22:00:00 20.3 4 Sudeste 6 Sudeste 0 -- -- 79
2017-07-26 21:00:00 23 3 Noroeste 16 Norte 0 -- -- 70
2017-07-26 20:00:00 24.6 7 Norte 17 Norte 0 -- -- 63
2017-07-26 19:00:00 26.5 6 Noroeste 14 Noroeste 0 -- -- 52
2017-07-26 18:00:00 26.8 8 Noroeste 19 Noroeste 0 -- -- 47
2017-07-26 17:00:00 27.2 8 Noroeste 20 Noroeste 0 -- -- 43
2017-07-26 16:00:00 27.1 8 Noroeste 18 Noroeste 0 -- -- 44
2017-07-26 15:00:00 26.3 9 Norte 20 Noroeste 0 -- -- 42
2017-07-26 14:00:00 25.7 7 Noroeste 18 Noroeste 0 -- -- 43
2017-07-26 13:00:00 24.5 7 Noroeste 15 Noroeste 0 -- -- 46
2017-07-26 12:00:00 23.4 7 Noroeste 15 Norte 0 -- -- 59
2017-07-26 11:00:00 19.6 3 Nordeste 7 Este 0 -- -- 79
2017-07-26 10:00:00 12.7 0 Calma 2 Este 0 -- -- 99
2017-07-26 09:00:00 11.9 0 Calma 9 Sudeste 0 -- -- 97
2017-07-26 08:00:00 10.7 5 Sudeste 8 Sudeste 0 -- -- 98
2017-07-26 07:00:00 10.7 2 Sudeste 9 Sudeste 0 -- -- 96
2017-07-26 06:00:00 10.4 2 Sudeste 11 Sudeste 0 -- -- 95
2017-07-26 05:00:00 10.4 5 Sudeste 10 Sudeste 0 -- -- 96
2017-07-26 04:00:00 10.5 4 Sudeste 9 Sudeste 0 -- -- 94
2017-07-26 03:00:00 10.9 5 Sudeste 9 Sudeste 0 -- -- 94
2017-07-26 02:00:00 11.5 0 Calma 10 Sudeste 0 -- -- 93
2017-07-26 01:00:00 12 5 Sudeste 8 Sudeste 0 -- -- 92
2017-07-26 00:00:00 13 4 Sudeste 9 Sudeste 0 -- -- 91
2017-07-25 23:00:00 14.3 4 Sudeste 7 Sur 0 -- -- 88
2017-07-25 22:00:00 17.2 0 Calma 10 Norte 0 -- -- 79
2017-07-25 21:00:00 19.7 4 Norte 15 Noroeste 0 -- -- 72
2017-07-25 20:00:00 20.6 7 Noroeste 19 Noroeste 0 -- -- 67
2017-07-25 19:00:00 21.2 10 Noroeste 23 Noroeste 0 -- -- 64
2017-07-25 18:00:00 22.2 10 Noroeste 23 Noroeste 0 -- -- 59
2017-07-25 17:00:00 22.4 10 Noroeste 25 Noroeste 0 -- -- 53
2017-07-25 16:00:00 22.1 9 Norte 23 Noroeste 0 -- -- 53
2017-07-25 15:00:00 20.8 8 Noroeste 18 Noroeste 0 -- -- 57
2017-07-25 14:00:00 20 9 Noroeste 17 Noroeste 0 -- -- 60
2017-07-25 13:00:00 18.3 6 Noroeste 14 Noroeste 0 -- -- 65
2017-07-25 12:00:00 16.5 3 Noroeste 8 Noroeste 0 -- -- 69
2017-07-25 11:00:00 14.7 3 Noroeste 9 Noroeste 0 -- -- 78
2017-07-25 10:00:00 13.4 4 Noroeste 8 Noroeste 0 -- -- 92
2017-07-25 09:00:00 12.3 0 Calma 5 Sudeste 0 -- -- 97
2017-07-25 08:00:00 12 0 Calma 3 Sur 0 -- -- 98
2017-07-25 07:00:00 11.8 0 Calma 5 Sudeste 0 -- -- 97
2017-07-25 06:00:00 11.7 2 Sudeste 6 Sudeste 0 -- -- 95
2017-07-25 05:00:00 12.2 2 Sudeste 5 Sudeste 0 -- -- 97
2017-07-25 04:00:00 12.3 2 Norte 5 Norte 0 -- -- 98
2017-07-25 03:00:00 12.6 3 Norte 7 Norte 0 -- -- 98
2017-07-25 02:00:00 12.8 3 Norte 8 Nordeste 0 -- -- 98
2017-07-25 01:00:00 13 3 Norte 8 Norte 0 -- -- 97
2017-07-25 00:00:00 13.4 3 Norte 5 Norte 0 -- -- 97
2017-07-24 23:00:00 13.6 3 Norte 11 Norte 0 -- -- 97
2017-07-24 22:00:00 14 5 Norte 11 Noroeste 0 -- -- 96
2017-07-24 21:00:00 14.5 5 Norte 12 Norte 0 -- -- 95
2017-07-24 20:00:00 14.7 5 Norte 14 Norte 0.2 -- -- 95
2017-07-24 19:00:00 15.2 8 Norte 15 Noroeste 0.2 -- -- 94
2017-07-24 18:00:00 15.9 6 Norte 16 Noroeste 0 -- -- 89
2017-07-24 17:00:00 16.1 5 Norte 16 Noroeste 0 -- -- 87
2017-07-24 16:00:00 16.9 6 Norte 15 Noroeste 0 -- -- 85
2017-07-24 15:00:00 16.8 6 Norte 15 Norte 0 -- -- 87
2017-07-24 14:00:00 17.8 5 Norte 17 Noroeste 0 -- -- 79
2017-07-24 13:00:00 16.8 6 Norte 17 Noroeste 0 -- -- 85
2017-07-24 12:00:00 16.5 9 Norte 17 Norte 0 -- -- 88
2017-07-24 11:00:00 15.5 6 Norte 16 Noroeste 0 -- -- 94
2017-07-24 10:00:00 14.6 8 Norte 17 Norte 0.2 -- -- 97
2017-07-24 09:00:00 14.7 4 Norte 9 Norte 0 -- -- 98
2017-07-24 08:00:00 14.4 4 Norte 13 Nordeste 0 -- -- 98
2017-07-24 07:00:00 14.3 5 Norte 14 Norte 0 -- -- 99
2017-07-24 06:00:00 14.7 7 Norte 16 Noroeste 0.2 -- -- 98
2017-07-24 05:00:00 15.2 5 Norte 13 Nordeste -- -- -- 98
2017-07-24 04:00:00 15.7 4 Noroeste 8 Norte -- -- -- 98
2017-07-24 03:00:00 16 0 Calma 5 Norte 0.2 -- -- 96
2017-07-24 02:00:00 16 4 Noroeste 8 Noroeste 0 -- -- 97
2017-07-24 01:00:00 16.3 4 Noroeste 9 Norte 0 -- -- 95
2017-07-24 00:00:00 16.6 0 Calma 6 Nordeste 0 -- -- 94
2017-07-23 23:00:00 16.9 3 Norte 6 Norte 0 -- -- 94
2017-07-23 22:00:00 17.2 3 Norte 18 Norte 0.4 -- -- 91
2017-07-23 21:00:00 18.9 6 Norte 14 Noroeste 0 -- -- 79
2017-07-23 20:00:00 20.8 5 Norte 17 Noroeste 0 -- -- 72
2017-07-23 19:00:00 23.8 7 Noroeste 17 Noroeste 0 -- -- 61
2017-07-23 18:00:00 22.8 4 Norte 17 Norte 0 -- -- 61
2017-07-23 17:00:00 24.1 12 Noroeste 27 Noroeste 0 -- -- 58
2017-07-23 16:00:00 24.1 12 Noroeste 24 Noroeste 0 -- -- 55
2017-07-23 15:00:00 23.1 9 Noroeste 17 Noroeste 0 -- -- 55
2017-07-23 14:00:00 22.3 4 Noroeste 13 Noroeste 0 -- -- 52
2017-07-23 13:00:00 20.3 4 Noroeste 10 Noroeste 0 -- -- 53
2017-07-23 12:00:00 18.1 6 Noroeste 14 Norte 0 -- -- 69
2017-07-23 11:00:00 14.6 3 Norte 8 Noroeste 0 -- -- 81
2017-07-23 10:00:00 10.4 0 Calma 3 Sudeste 0 -- -- 100
2017-07-23 09:00:00 8.3 3 Sudeste 7 Sudeste 0 -- -- 100
2017-07-23 08:00:00 7.6 3 Sudeste 8 Sudeste 0 -- -- 98
2017-07-23 07:00:00 7.7 4 Sudeste 10 Sudeste 0 -- -- 98
2017-07-23 06:00:00 8.2 4 Sudeste 10 Sur 0 -- -- 97
2017-07-23 05:00:00 8.8 6 Sudeste 10 Sudeste 0 -- -- 96
2017-07-23 04:00:00 9.6 4 Sudeste 10 Sudeste 0 -- -- 95
2017-07-23 03:00:00 11 5 Sudeste 8 Sudeste 0 -- -- 94
2017-07-23 02:00:00 12.5 2 Noroeste 5 Noroeste 0.2 -- -- 97
2017-07-23 01:00:00 12.6 0 Calma 4 Noroeste 0 -- -- 97
2017-07-23 00:00:00 12.7 2 Noroeste 4 Noroeste 0 -- -- 97